Time;durP1;ratioP1;P1;durP2;ratioP2;P2;SDS_P1;SDS_P2;PMS_P1;PMS_P2;Temp;Humidity;BMP_temperature;BMP_pressure;BME280_temperature;BME280_humidity;BME280_pressure;Samples;Min_cycle;Max_cycle;Signal;HPM_P1;HPM_P2
2021/07/17 00:01:59;;;;;;;26.10;15.50;;;;;;;;;;5109904;28;20520;-59
2021/07/17 00:04:38;;;;;;;39.87;14.93;;;;;;;;;;5093580;28;20491;-60
2021/07/17 00:07:06;;;;;;;30.53;16.40;;;;;;;;;;5095723;28;20464;-58
2021/07/17 00:09:33;;;;;;;30.83;14.17;;;;;;;;;;5093878;28;20471;-59
2021/07/17 00:12:04;;;;;;;30.63;13.70;;;;;;;;;;5092764;28;20494;-58
2021/07/17 00:14:33;;;;;;;30.33;11.83;;;;;;;;;;5093550;28;20456;-61
2021/07/17 00:17:02;;;;;;;29.23;11.80;;;;;;;;;;5096688;28;20432;-59
2021/07/17 00:19:30;;;;;;;28.90;12.60;;;;;;;;;;5094050;28;20451;-58
2021/07/17 00:21:57;;;;;;;26.40;11.57;;;;;;;;;;5100799;28;20441;-58
2021/07/17 00:24:27;;;;;;;23.90;11.00;;;;;;;;;;5113903;28;20506;-57
2021/07/17 00:26:54;;;;;;;24.17;12.43;;;;;;;;;;5110951;28;20459;-57
2021/07/17 00:29:23;;;;;;;21.93;11.37;;;;;;;;;;5093926;28;20448;-58
2021/07/17 00:32:09;;;;;;;19.23;10.10;;;;;;;;;;5095526;28;20636;-58
2021/07/17 00:34:36;;;;;;;37.03;12.00;;;;;;;;;;5105255;28;20687;-57
2021/07/17 00:37:04;;;;;;;24.23;10.97;;;;;;;;;;5096118;28;20455;-58
2021/07/17 00:42:36;;;;;;;29.90;10.67;;;;;;;;;;5103714;28;20430;-58
2021/07/17 00:45:03;;;;;;;26.90;10.33;;;;;;;;;;5096581;28;20462;-58
2021/07/17 00:47:32;;;;;;;22.53;10.13;;;;;;;;;;5097793;28;20452;-59
2021/07/17 00:49:59;;;;;;;27.97;11.80;;;;;;;;;;5104966;28;20625;-58
2021/07/17 00:52:45;;;;;;;23.50;11.70;;;;;;;;;;5106953;28;20519;-56
2021/07/17 00:55:15;;;;;;;28.37;13.17;;;;;;;;;;5116181;28;20504;-58
2021/07/17 00:57:46;;;;;;;22.30;11.80;;;;;;;;;;5105335;28;20443;-58
2021/07/17 01:00:15;;;;;;;31.90;12.63;;;;;;;;;;5096225;28;20492;-58
2021/07/17 01:02:47;;;;;;;26.00;11.87;;;;;;;;;;5109684;28;20474;-58
2021/07/17 01:05:17;;;;;;;31.90;13.57;;;;;;;;;;5105365;28;20431;-59
2021/07/17 01:07:50;;;;;;;25.70;12.80;;;;;;;;;;5114014;28;20451;-61
2021/07/17 01:10:18;;;;;;;28.80;12.43;;;;;;;;;;5117128;28;20451;-57
2021/07/17 01:12:46;;;;;;;22.53;13.20;;;;;;;;;;5099214;28;20460;-60
2021/07/17 01:15:48;;;;;;;41.33;15.10;;;;;;;;;;5124471;28;20512;-59
2021/07/17 01:18:17;;;;;;;31.23;14.03;;;;;;;;;;5132679;28;20537;-60
2021/07/17 01:20:45;;;;;;;26.87;12.90;;;;;;;;;;5137067;28;20486;-60
2021/07/17 01:23:24;;;;;;;27.97;13.13;;;;;;;;;;5137030;28;20462;-59
2021/07/17 01:25:52;;;;;;;27.23;13.90;;;;;;;;;;5114741;28;20549;-59
2021/07/17 01:28:19;;;;;;;32.87;13.40;;;;;;;;;;5109337;28;20455;-58
2021/07/17 01:30:47;;;;;;;23.80;11.97;;;;;;;;;;5116659;28;20469;-59
2021/07/17 01:33:14;;;;;;;27.17;12.60;;;;;;;;;;5107969;28;20521;-59
2021/07/17 01:35:48;;;;;;;30.10;12.90;;;;;;;;;;5096043;28;20696;-58
2021/07/17 01:38:16;;;;;;;27.23;13.83;;;;;;;;;;5096371;28;20454;-57
2021/07/17 01:40:49;;;;;;;25.67;13.07;;;;;;;;;;5106233;28;20491;-58
2021/07/17 01:43:16;;;;;;;23.00;13.10;;;;;;;;;;5102040;28;20497;-58
2021/07/17 01:45:45;;;;;;;30.20;13.40;;;;;;;;;;5100224;28;20486;-58
2021/07/17 01:48:14;;;;;;;25.37;13.70;;;;;;;;;;5080646;28;20440;-56
2021/07/17 01:50:44;;;;;;;28.03;15.00;;;;;;;;;;5099878;28;20473;-59
2021/07/17 01:53:13;;;;;;;31.00;14.50;;;;;;;;;;5100518;28;20463;-59
2021/07/17 01:55:40;;;;;;;34.20;13.27;;;;;;;;;;5098932;28;20470;-57
2021/07/17 01:58:10;;;;;;;27.17;14.50;;;;;;;;;;5105670;28;20459;-60
2021/07/17 02:00:37;;;;;;;21.53;13.00;;;;;;;;;;5100266;28;20503;-58
2021/07/17 02:03:05;;;;;;;31.13;15.37;;;;;;;;;;5095280;28;20496;-59
2021/07/17 02:05:47;;;;;;;29.17;14.50;;;;;;;;;;5101195;28;20483;-59
2021/07/17 02:08:15;;;;;;;30.73;14.50;;;;;;;;;;5103002;28;20460;-58
2021/07/17 02:10:42;;;;;;;26.07;14.10;;;;;;;;;;5096214;28;20474;-59
2021/07/17 02:13:12;;;;;;;27.97;14.93;;;;;;;;;;5134598;28;20480;-60
2021/07/17 02:15:43;;;;;;;33.77;13.60;;;;;;;;;;5110008;28;20436;-57
2021/07/17 02:18:36;;;;;;;26.33;14.37;;;;;;;;;;5102538;28;20460;-58
2021/07/17 02:21:06;;;;;;;31.03;14.00;;;;;;;;;;5114671;28;20487;-61
2021/07/17 02:23:33;;;;;;;34.00;14.80;;;;;;;;;;5098620;28;20440;-58
2021/07/17 02:26:01;;;;;;;25.53;13.50;;;;;;;;;;5095111;28;20961;-59
2021/07/17 02:28:30;;;;;;;37.00;15.60;;;;;;;;;;5096028;28;20460;-60
2021/07/17 02:30:57;;;;;;;25.30;14.80;;;;;;;;;;5096050;28;20479;-59
2021/07/17 02:33:38;;;;;;;25.00;12.00;;;;;;;;;;5113191;28;20473;-57
2021/07/17 02:36:09;;;;;;;31.50;13.50;;;;;;;;;;5116152;28;20466;-58
2021/07/17 02:38:38;;;;;;;31.50;13.20;;;;;;;;;;5108587;28;20440;-59
2021/07/17 02:41:06;;;;;;;31.47;14.80;;;;;;;;;;5115390;28;20479;-59
2021/07/17 02:43:34;;;;;;;22.93;12.53;;;;;;;;;;5106330;28;20460;-59
2021/07/17 02:46:02;;;;;;;19.67;11.87;;;;;;;;;;5095691;28;20486;-59
2021/07/17 02:48:39;;;;;;;26.73;12.47;;;;;;;;;;5101607;28;20574;-60
2021/07/17 02:51:06;;;;;;;26.47;13.50;;;;;;;;;;5106466;28;20515;-57
2021/07/17 02:53:34;;;;;;;26.53;14.07;;;;;;;;;;5104855;28;20451;-58
2021/07/17 02:56:02;;;;;;;32.00;13.03;;;;;;;;;;5102512;28;20460;-59
2021/07/17 02:58:30;;;;;;;23.57;12.30;;;;;;;;;;5106714;28;20862;-57
2021/07/17 03:00:59;;;;;;;26.60;12.90;;;;;;;;;;5106700;28;20488;-58
2021/07/17 03:03:43;;;;;;;31.23;13.30;;;;;;;;;;5094832;28;20488;-59
2021/07/17 03:06:12;;;;;;;25.43;12.90;;;;;;;;;;5102126;28;20477;-56
2021/07/17 03:08:39;;;;;;;28.93;13.50;;;;;;;;;;5107537;28;20447;-56
2021/07/17 03:11:08;;;;;;;19.77;12.90;;;;;;;;;;5100078;28;20448;-61
2021/07/17 03:13:35;;;;;;;30.57;14.87;;;;;;;;;;5094587;28;20475;-60
2021/07/17 03:16:05;;;;;;;25.20;12.00;;;;;;;;;;5099785;28;20483;-59
2021/07/17 03:18:39;;;;;;;24.70;12.77;;;;;;;;;;5097543;28;20467;-60
2021/07/17 03:21:06;;;;;;;28.93;13.07;;;;;;;;;;5095603;28;20483;-59
2021/07/17 03:23:33;;;;;;;27.23;13.93;;;;;;;;;;5095318;28;20463;-60
2021/07/17 03:26:02;;;;;;;27.50;13.87;;;;;;;;;;5111249;28;20486;-59
2021/07/17 03:28:30;;;;;;;23.27;12.47;;;;;;;;;;5103534;28;20471;-59
2021/07/17 03:30:57;;;;;;;25.97;15.07;;;;;;;;;;5102964;28;20474;-57
2021/07/17 03:33:59;;;;;;;31.97;12.70;;;;;;;;;;5116329;28;20455;-58
2021/07/17 03:36:28;;;;;;;25.20;14.30;;;;;;;;;;5108496;28;20474;-58
2021/07/17 03:38:56;;;;;;;26.37;12.67;;;;;;;;;;5107114;28;20446;-56
2021/07/17 03:41:24;;;;;;;34.40;15.77;;;;;;;;;;5114892;28;20485;-59
2021/07/17 03:43:52;;;;;;;31.40;13.90;;;;;;;;;;5100436;28;20474;-57
2021/07/17 03:46:20;;;;;;;34.47;14.20;;;;;;;;;;5113867;28;20450;-59
2021/07/17 03:48:47;;;;;;;29.10;14.33;;;;;;;;;;5100788;28;20460;-59
2021/07/17 03:51:15;;;;;;;32.67;15.13;;;;;;;;;;5109440;28;20514;-59
2021/07/17 03:53:44;;;;;;;27.73;13.10;;;;;;;;;;5102440;28;20440;-56
2021/07/17 03:59:15;;;;;;;35.13;12.70;;;;;;;;;;5094729;28;20482;-58
2021/07/17 04:01:42;;;;;;;27.50;13.90;;;;;;;;;;5112147;28;20476;-56
2021/07/17 04:04:12;;;;;;;28.57;12.40;;;;;;;;;;5094966;28;20441;-58
2021/07/17 04:06:42;;;;;;;29.53;14.27;;;;;;;;;;5113254;28;20522;-59
2021/07/17 04:09:29;;;;;;;23.80;13.97;;;;;;;;;;5116358;28;20448;-61
2021/07/17 04:11:57;;;;;;;28.73;12.47;;;;;;;;;;5116032;28;20466;-55
2021/07/17 04:14:24;;;;;;;32.23;14.20;;;;;;;;;;5112410;28;20471;-58
2021/07/17 04:16:54;;;;;;;33.90;14.80;;;;;;;;;;5099841;28;20479;-59
2021/07/17 04:19:21;;;;;;;27.43;12.23;;;;;;;;;;5098665;28;20454;-58
2021/07/17 04:21:49;;;;;;;24.17;12.60;;;;;;;;;;5113311;28;20513;-60
2021/07/17 04:24:16;;;;;;;24.47;12.80;;;;;;;;;;5098335;28;20444;-57
2021/07/17 04:26:43;;;;;;;27.57;14.27;;;;;;;;;;5099799;28;20462;-58
2021/07/17 04:29:13;;;;;;;29.40;12.50;;;;;;;;;;5118979;28;20517;-57
2021/07/17 04:34:47;;;;;;;23.40;12.37;;;;;;;;;;5096676;28;20446;-58
2021/07/17 04:37:19;;;;;;;23.30;11.63;;;;;;;;;;5139115;28;20454;-55
2021/07/17 04:40:06;;;;;;;26.43;13.30;;;;;;;;;;5106871;28;20514;-57
2021/07/17 04:42:34;;;;;;;20.13;11.90;;;;;;;;;;5124816;28;20524;-58
2021/07/17 04:45:02;;;;;;;32.77;13.27;;;;;;;;;;5140138;27;20458;-58
2021/07/17 04:47:46;;;;;;;20.43;12.23;;;;;;;;;;5156504;27;20462;-59
2021/07/17 04:50:14;;;;;;;26.10;12.77;;;;;;;;;;5135469;28;20559;-63
2021/07/17 04:52:42;;;;;;;32.53;12.43;;;;;;;;;;5135841;28;20885;-57
2021/07/17 04:55:27;;;;;;;21.20;11.10;;;;;;;;;;5137371;28;20573;-56
2021/07/17 04:57:55;;;;;;;23.20;11.83;;;;;;;;;;5138007;28;20450;-57
2021/07/17 05:00:23;;;;;;;27.30;12.20;;;;;;;;;;5138429;28;20470;-57
2021/07/17 05:02:56;;;;;;;21.17;11.27;;;;;;;;;;5137980;28;20475;-56
2021/07/17 05:05:24;;;;;;;31.40;11.07;;;;;;;;;;5125508;28;20458;-56
2021/07/17 05:07:53;;;;;;;28.57;12.13;;;;;;;;;;5131946;28;20483;-57
2021/07/17 05:10:22;;;;;;;34.83;13.30;;;;;;;;;;5123313;28;20475;-58
2021/07/17 05:12:49;;;;;;;29.30;12.27;;;;;;;;;;5117714;28;20477;-56
2021/07/17 05:15:48;;;;;;;24.90;10.73;;;;;;;;;;5126906;28;20484;-59
2021/07/17 05:18:17;;;;;;;25.63;11.27;;;;;;;;;;5126292;28;20482;-57
2021/07/17 05:20:45;;;;;;;26.40;10.30;;;;;;;;;;5133917;28;20447;-59
2021/07/17 05:23:22;;;;;;;23.37;11.93;;;;;;;;;;5138155;28;20454;-59
2021/07/17 05:25:50;;;;;;;29.13;12.23;;;;;;;;;;5124060;28;20461;-59
2021/07/17 05:28:20;;;;;;;24.20;13.40;;;;;;;;;;5133005;27;20462;-59
2021/07/17 05:30:49;;;;;;;27.77;13.90;;;;;;;;;;5113523;28;20522;-59
2021/07/17 05:33:21;;;;;;;22.77;13.20;;;;;;;;;;5125502;28;20529;-59
2021/07/17 05:35:48;;;;;;;23.00;12.13;;;;;;;;;;5121497;28;20482;-59
2021/07/17 05:38:18;;;;;;;23.10;11.70;;;;;;;;;;5137242;28;20441;-59
2021/07/17 05:40:49;;;;;;;24.93;11.53;;;;;;;;;;5114749;28;20503;-59
2021/07/17 05:43:22;;;;;;;22.20;12.17;;;;;;;;;;5098079;28;20612;-61
2021/07/17 05:46:09;;;;;;;16.80;9.83;;;;;;;;;;5112544;28;20507;-64
2021/07/17 05:48:37;;;;;;;19.50;11.23;;;;;;;;;;5107697;28;20491;-58
2021/07/17 05:51:05;;;;;;;20.13;12.30;;;;;;;;;;5116555;28;20451;-58
2021/07/17 05:53:33;;;;;;;23.00;11.80;;;;;;;;;;5114241;28;20455;-55
2021/07/17 05:56:00;;;;;;;22.20;12.67;;;;;;;;;;5104098;28;20452;-57
2021/07/17 05:58:28;;;;;;;22.33;12.90;;;;;;;;;;5097134;28;20444;-58
2021/07/17 06:01:18;;;;;;;23.43;13.30;;;;;;;;;;5099958;28;20462;-59
2021/07/17 06:03:47;;;;;;;21.33;10.93;;;;;;;;;;5116999;28;20443;-57
2021/07/17 06:06:14;;;;;;;30.13;11.20;;;;;;;;;;5105132;28;20463;-56
2021/07/17 06:08:59;;;;;;;19.33;10.00;;;;;;;;;;5101564;28;20456;-56
2021/07/17 06:11:32;;;;;;;22.73;13.07;;;;;;;;;;5104794;28;20443;-58
2021/07/17 06:14:00;;;;;;;30.20;17.80;;;;;;;;;;5103242;28;20439;-57
2021/07/17 06:19:32;;;;;;;34.23;15.33;;;;;;;;;;5102660;28;20395;-59
2021/07/17 06:21:59;;;;;;;33.87;18.07;;;;;;;;;;5101507;28;20745;-57
2021/07/17 06:24:33;;;;;;;27.90;16.77;;;;;;;;;;5115014;28;20481;-61
2021/07/17 06:27:00;;;;;;;30.57;17.40;;;;;;;;;;5095543;28;20452;-54
2021/07/17 06:29:28;;;;;;;38.93;23.73;;;;;;;;;;5102445;28;20468;-57
2021/07/17 06:31:55;;;;;;;34.53;21.40;;;;;;;;;;5101710;28;20439;-58
2021/07/17 06:34:23;;;;;;;28.77;20.27;;;;;;;;;;5104807;28;20539;-56
2021/07/17 06:36:53;;;;;;;33.23;20.00;;;;;;;;;;5096977;28;20587;-55
2021/07/17 06:39:31;;;;;;;32.07;19.60;;;;;;;;;;5095821;28;20448;-60
2021/07/17 06:42:02;;;;;;;29.67;18.30;;;;;;;;;;5096475;28;20470;-59
2021/07/17 06:44:35;;;;;;;28.80;16.53;;;;;;;;;;5103285;28;20451;-59
2021/07/17 06:47:02;;;;;;;27.70;16.27;;;;;;;;;;5095338;28;20467;-61
2021/07/17 06:49:30;;;;;;;25.73;16.47;;;;;;;;;;5115054;28;20447;-61
2021/07/17 06:52:04;;;;;;;29.90;20.23;;;;;;;;;;5102574;28;20456;-58
2021/07/17 06:54:33;;;;;;;28.23;20.00;;;;;;;;;;5094969;28;20463;-59
2021/07/17 06:57:00;;;;;;;31.37;19.43;;;;;;;;;;5099130;28;20501;-57
2021/07/17 06:59:44;;;;;;;29.13;17.53;;;;;;;;;;5102485;28;20444;-60
2021/07/17 07:02:11;;;;;;;36.60;20.20;;;;;;;;;;5101532;28;20513;-59
2021/07/17 07:04:39;;;;;;;31.10;18.53;;;;;;;;;;5103106;28;20448;-60
2021/07/17 07:07:34;;;;;;;25.40;16.90;;;;;;;;;;5107974;28;20467;-57
2021/07/17 07:10:05;;;;;;;30.03;19.33;;;;;;;;;;5118159;28;20493;-60
2021/07/17 07:12:33;;;;;;;31.60;19.70;;;;;;;;;;5135204;28;20517;-60
2021/07/17 07:15:26;;;;;;;33.97;22.20;;;;;;;;;;5135947;28;20446;-58
2021/07/17 07:17:56;;;;;;;45.60;24.63;;;;;;;;;;5113009;28;20505;-58
2021/07/17 07:20:28;;;;;;;39.47;22.80;;;;;;;;;;5112066;28;20464;-59
2021/07/17 07:22:56;;;;;;;33.60;23.60;;;;;;;;;;5124078;28;20484;-57
2021/07/17 07:25:31;;;;;;;32.90;22.57;;;;;;;;;;5110208;28;20460;-59
2021/07/17 07:28:10;;;;;;;43.00;23.97;;;;;;;;;;5106867;28;20515;-59
2021/07/17 07:30:51;;;;;;;36.73;22.57;;;;;;;;;;5101958;28;20455;-58
2021/07/17 07:33:23;;;;;;;37.37;23.50;;;;;;;;;;5100914;28;20471;-57
2021/07/17 07:35:59;;;;;;;35.40;23.27;;;;;;;;;;5102830;28;20454;-59
2021/07/17 07:38:26;;;;;;;35.30;21.53;;;;;;;;;;5126646;28;20446;-59
2021/07/17 07:40:55;;;;;;;38.87;23.00;;;;;;;;;;5112059;28;20455;-57
2021/07/17 07:43:24;;;;;;;34.53;23.13;;;;;;;;;;5099686;28;20492;-57
2021/07/17 07:46:01;;;;;;;38.20;24.67;;;;;;;;;;5116572;28;20461;-59
2021/07/17 07:48:29;;;;;;;37.00;26.30;;;;;;;;;;5106980;28;20463;-58
2021/07/17 07:50:58;;;;;;;34.37;23.10;;;;;;;;;;5121006;28;20451;-59
2021/07/17 07:53:27;;;;;;;34.40;24.10;;;;;;;;;;5108033;28;20452;-59
2021/07/17 07:56:12;;;;;;;39.63;24.77;;;;;;;;;;5110873;28;20547;-57
2021/07/17 07:58:43;;;;;;;30.27;23.80;;;;;;;;;;5116377;28;20664;-59
2021/07/17 08:01:10;;;;;;;54.53;27.00;;;;;;;;;;5105973;28;20559;-58
2021/07/17 08:06:40;;;;;;;35.30;23.43;;;;;;;;;;5104775;28;20470;-59
2021/07/17 08:09:07;;;;;;;38.73;25.43;;;;;;;;;;5100564;28;20692;-59
2021/07/17 08:11:39;;;;;;;31.60;23.73;;;;;;;;;;5099801;28;20487;-58
2021/07/17 08:14:14;;;;;;;35.60;22.50;;;;;;;;;;5110915;28;20451;-58
2021/07/17 08:16:49;;;;;;;30.03;21.30;;;;;;;;;;5109522;28;20556;-56
2021/07/17 08:19:17;;;;;;;31.73;20.20;;;;;;;;;;5118632;28;20450;-58
2021/07/17 08:24:26;;;;;;;41.03;21.93;;;;;;;;;;5129238;28;20580;-59
2021/07/17 08:26:59;;;;;;;37.63;22.60;;;;;;;;;;5120560;28;20477;-57
2021/07/17 08:29:46;;;;;;;34.07;22.00;;;;;;;;;;5127031;28;20463;-59
2021/07/17 08:32:32;;;;;;;30.07;23.70;;;;;;;;;;5118260;28;20447;-59
2021/07/17 08:35:00;;;;;;;29.67;22.70;;;;;;;;;;5132160;28;20481;-61
2021/07/17 08:37:43;;;;;;;31.80;23.97;;;;;;;;;;5125391;28;20456;-59
2021/07/17 08:40:17;;;;;;;32.57;21.20;;;;;;;;;;5127863;28;20439;-58
2021/07/17 08:43:03;;;;;;;34.83;22.47;;;;;;;;;;5126760;28;20487;-57
2021/07/17 08:45:31;;;;;;;37.93;19.57;;;;;;;;;;5119972;28;20445;-60
2021/07/17 08:47:59;;;;;;;30.10;17.90;;;;;;;;;;5120816;28;20454;-58
2021/07/17 08:50:27;;;;;;;28.30;17.53;;;;;;;;;;5137484;28;20450;-58
2021/07/17 08:53:05;;;;;;;35.60;19.17;;;;;;;;;;5122196;28;20459;-59
2021/07/17 08:55:35;;;;;;;35.73;21.30;;;;;;;;;;5129412;28;20459;-59
2021/07/17 08:58:05;;;;;;;34.03;20.17;;;;;;;;;;5125126;28;20473;-60
2021/07/17 09:00:48;;;;;;;30.93;21.13;;;;;;;;;;5134597;28;20467;-58
2021/07/17 09:03:20;;;;;;;34.83;23.93;;;;;;;;;;5131804;28;20474;-59
2021/07/17 09:05:50;;;;;;;27.20;20.73;;;;;;;;;;5135012;28;20458;-58
2021/07/17 09:08:20;;;;;;;36.03;21.60;;;;;;;;;;5123353;28;20493;-57
2021/07/17 09:10:50;;;;;;;30.97;21.77;;;;;;;;;;5125480;28;20473;-58
2021/07/17 09:13:27;;;;;;;33.50;22.87;;;;;;;;;;5119380;28;20451;-57
2021/07/17 09:15:56;;;;;;;32.27;18.17;;;;;;;;;;5119245;27;20523;-58
2021/07/17 09:18:31;;;;;;;22.90;17.90;;;;;;;;;;5090185;28;20456;-58
2021/07/17 09:21:07;;;;;;;27.30;18.13;;;;;;;;;;5091650;28;20547;-57
2021/07/17 09:23:37;;;;;;;26.80;19.27;;;;;;;;;;5076809;28;20507;-58
2021/07/17 09:26:35;;;;;;;26.83;17.47;;;;;;;;;;5089505;28;20455;-58
2021/07/17 09:29:12;;;;;;;31.67;19.07;;;;;;;;;;5089818;28;20497;-60
2021/07/17 09:34:36;;;;;;;30.97;20.30;;;;;;;;;;5079507;28;20470;-57
2021/07/17 09:37:11;;;;;;;27.50;18.97;;;;;;;;;;5107573;28;20499;-58
2021/07/17 09:39:41;;;;;;;27.93;19.20;;;;;;;;;;5102799;28;20518;-58
2021/07/17 09:45:43;;;;;;;28.60;20.80;;;;;;;;;;5101412;28;20431;-59
2021/07/17 09:48:30;;;;;;;32.77;19.57;;;;;;;;;;5108912;28;20485;-56
2021/07/17 09:51:00;;;;;;;29.37;21.00;;;;;;;;;;5098957;28;20586;-56
2021/07/17 09:53:41;;;;;;;23.60;20.17;;;;;;;;;;5099679;28;20456;-59
2021/07/17 09:56:12;;;;;;;30.13;20.77;;;;;;;;;;5097040;28;20463;-59
2021/07/17 09:58:46;;;;;;;29.30;19.60;;;;;;;;;;5110377;28;20496;-62
2021/07/17 10:01:30;;;;;;;29.50;19.13;;;;;;;;;;5105897;28;20476;-59
2021/07/17 10:04:03;;;;;;;27.10;20.30;;;;;;;;;;5115855;28;20479;-58
2021/07/17 10:06:40;;;;;;;25.10;20.33;;;;;;;;;;5097892;28;20432;-59
2021/07/17 10:09:28;;;;;;;26.43;20.53;;;;;;;;;;5094495;28;20457;-59
2021/07/17 10:12:00;;;;;;;30.17;20.00;;;;;;;;;;5111004;28;20461;-58
2021/07/17 10:14:28;;;;;;;25.17;20.37;;;;;;;;;;5105672;28;20456;-58
2021/07/17 10:16:58;;;;;;;33.33;21.00;;;;;;;;;;5111877;28;20462;-60
2021/07/17 10:19:29;;;;;;;33.77;20.20;;;;;;;;;;5125200;28;20464;-59
2021/07/17 10:21:57;;;;;;;38.30;20.80;;;;;;;;;;5092439;28;20444;-60
2021/07/17 10:24:25;;;;;;;36.00;19.80;;;;;;;;;;5101237;28;20485;-59
2021/07/17 10:27:05;;;;;;;31.57;20.60;;;;;;;;;;5098703;28;20625;-59
2021/07/17 10:29:36;;;;;;;30.20;19.00;;;;;;;;;;5105226;28;20445;-60
2021/07/17 10:32:10;;;;;;;28.60;18.73;;;;;;;;;;5114882;28;20470;-60
2021/07/17 10:34:44;;;;;;;27.13;19.77;;;;;;;;;;5093559;28;20437;-60
2021/07/17 10:37:15;;;;;;;26.30;19.83;;;;;;;;;;5103009;28;20590;-60
2021/07/17 10:39:47;;;;;;;24.40;18.43;;;;;;;;;;5104516;28;20497;-58
2021/07/17 10:42:23;;;;;;;22.70;18.10;;;;;;;;;;5098004;28;20451;-60
2021/07/17 10:44:51;;;;;;;32.53;19.83;;;;;;;;;;5092507;28;20441;-60
2021/07/17 10:47:19;;;;;;;25.23;18.17;;;;;;;;;;5108593;28;20512;-58
2021/07/17 10:49:49;;;;;;;32.10;18.07;;;;;;;;;;5098039;28;20742;-60
2021/07/17 10:52:37;;;;;;;28.20;17.87;;;;;;;;;;5106717;28;20446;-60
2021/07/17 10:55:23;;;;;;;23.60;18.80;;;;;;;;;;5104428;28;20459;-60
2021/07/17 10:58:21;;;;;;;27.10;16.90;;;;;;;;;;5102353;28;20532;-59
2021/07/17 11:00:49;;;;;;;25.37;18.37;;;;;;;;;;5114284;28;20474;-59
2021/07/17 11:03:21;;;;;;;25.17;17.77;;;;;;;;;;5109042;28;20466;-59
2021/07/17 11:05:50;;;;;;;25.27;19.60;;;;;;;;;;5105379;28;20454;-57
2021/07/17 11:08:33;;;;;;;27.10;18.30;;;;;;;;;;5097113;28;20459;-60
2021/07/17 11:11:01;;;;;;;27.13;18.27;;;;;;;;;;5098387;28;20472;-60
2021/07/17 11:13:34;;;;;;;32.07;19.07;;;;;;;;;;5098299;28;20780;-59
2021/07/17 11:16:35;;;;;;;22.33;18.10;;;;;;;;;;5094256;28;20838;-60
2021/07/17 11:19:19;;;;;;;26.37;17.73;;;;;;;;;;5113041;28;20457;-58
2021/07/17 11:21:49;;;;;;;23.30;16.20;;;;;;;;;;5090731;28;20550;-59
2021/07/17 11:24:22;;;;;;;24.83;15.10;;;;;;;;;;5096264;28;20495;-59
2021/07/17 11:27:07;;;;;;;24.17;18.03;;;;;;;;;;5093305;28;20460;-59
2021/07/17 11:29:54;;;;;;;26.80;16.77;;;;;;;;;;5104525;28;20474;-59
2021/07/17 11:32:22;;;;;;;25.87;18.00;;;;;;;;;;5107198;28;20516;-58
2021/07/17 11:34:53;;;;;;;22.63;15.40;;;;;;;;;;5109118;28;20449;-59
2021/07/17 11:37:46;;;;;;;23.00;14.90;;;;;;;;;;5096386;28;20480;-58
2021/07/17 11:43:53;;;;;;;26.23;14.40;;;;;;;;;;5098604;28;20578;-60
2021/07/17 11:46:23;;;;;;;20.90;16.23;;;;;;;;;;5092758;28;20524;-59
2021/07/17 11:52:06;;;;;;;27.03;14.77;;;;;;;;;;5094564;28;20735;-61
2021/07/17 11:55:04;;;;;;;19.23;13.80;;;;;;;;;;5096946;28;20452;-61
2021/07/17 11:57:40;;;;;;;27.30;16.97;;;;;;;;;;5092805;28;20476;-60
2021/07/17 12:00:16;;;;;;;19.47;13.37;;;;;;;;;;5094516;28;20458;-57
2021/07/17 12:02:44;;;;;;;15.93;11.90;;;;;;;;;;5107940;28;20514;-59
2021/07/17 12:05:19;;;;;;;14.60;12.63;;;;;;;;;;5091365;28;20535;-59
2021/07/17 12:08:00;;;;;;;14.30;11.93;;;;;;;;;;5106940;28;20458;-59
2021/07/17 12:10:38;;;;;;;16.77;12.20;;;;;;;;;;5102036;28;20459;-60
2021/07/17 12:13:08;;;;;;;14.77;10.80;;;;;;;;;;5101082;28;20448;-59
2021/07/17 12:15:48;;;;;;;13.70;10.27;;;;;;;;;;5110036;28;20455;-61
2021/07/17 12:18:22;;;;;;;13.90;9.03;;;;;;;;;;5116507;28;20485;-60
2021/07/17 12:20:50;;;;;;;14.23;9.07;;;;;;;;;;5096877;28;20459;-60
2021/07/17 12:23:24;;;;;;;11.20;7.70;;;;;;;;;;5107143;28;20547;-60
2021/07/17 12:26:15;;;;;;;13.43;7.40;;;;;;;;;;5106769;28;20451;-59
2021/07/17 12:28:46;;;;;;;10.10;6.97;;;;;;;;;;5115966;28;20490;-60
2021/07/17 12:31:19;;;;;;;10.33;6.40;;;;;;;;;;5124889;28;20455;-60
2021/07/17 12:33:55;;;;;;;14.73;7.17;;;;;;;;;;5118810;28;20459;-60
2021/07/17 12:36:29;;;;;;;14.33;6.40;;;;;;;;;;5116999;28;20439;-61
2021/07/17 12:38:59;;;;;;;14.43;6.23;;;;;;;;;;5100504;28;20457;-59
2021/07/17 12:41:27;;;;;;;17.70;6.60;;;;;;;;;;5116003;28;20435;-59
2021/07/17 12:43:57;;;;;;;14.50;7.10;;;;;;;;;;5127305;28;20466;-59
2021/07/17 12:46:37;;;;;;;13.80;6.50;;;;;;;;;;5117176;28;20439;-60
2021/07/17 12:49:22;;;;;;;16.10;5.60;;;;;;;;;;5115766;28;20454;-62
2021/07/17 12:51:57;;;;;;;9.83;6.00;;;;;;;;;;5135203;28;20458;-60
2021/07/17 12:54:25;;;;;;;11.40;6.67;;;;;;;;;;5118658;28;20434;-59
2021/07/17 12:56:54;;;;;;;12.60;6.80;;;;;;;;;;5119088;28;20459;-60
2021/07/17 12:59:40;;;;;;;12.43;5.57;;;;;;;;;;5115457;28;20435;-60
2021/07/17 13:02:08;;;;;;;10.90;5.70;;;;;;;;;;5114638;28;20481;-60
2021/07/17 13:04:46;;;;;;;15.27;6.00;;;;;;;;;;5142866;27;20454;-61
2021/07/17 13:07:15;;;;;;;13.37;4.63;;;;;;;;;;5123576;28;20485;-59
2021/07/17 13:09:44;;;;;;;7.00;4.43;;;;;;;;;;5114920;28;20461;-58
2021/07/17 13:12:41;;;;;;;8.57;4.53;;;;;;;;;;5133318;28;20516;-59
2021/07/17 13:15:25;;;;;;;7.73;4.40;;;;;;;;;;5135657;28;20649;-60
2021/07/17 13:20:44;;;;;;;9.53;4.87;;;;;;;;;;5119771;28;20498;-60
2021/07/17 13:23:23;;;;;;;7.10;4.10;;;;;;;;;;5134270;28;20446;-60
2021/07/17 13:26:09;;;;;;;8.27;4.60;;;;;;;;;;5132674;28;20513;-59
2021/07/17 13:28:36;;;;;;;9.10;3.93;;;;;;;;;;5125767;27;20475;-59
2021/07/17 13:31:17;;;;;;;16.07;5.90;;;;;;;;;;5118156;28;20707;-61
2021/07/17 13:36:26;;;;;;;8.43;4.00;;;;;;;;;;5107788;28;20486;-57
2021/07/17 13:39:01;;;;;;;7.93;4.27;;;;;;;;;;5097649;28;20433;-61
2021/07/17 13:41:30;;;;;;;9.30;3.77;;;;;;;;;;5107490;28;20455;-60
2021/07/17 13:44:11;;;;;;;6.20;4.77;;;;;;;;;;5099331;28;20491;-60
2021/07/17 13:46:40;;;;;;;9.80;4.23;;;;;;;;;;5100710;28;20504;-60
2021/07/17 13:49:35;;;;;;;9.03;4.80;;;;;;;;;;5094258;28;20443;-59
2021/07/17 13:52:03;;;;;;;9.00;4.97;;;;;;;;;;5104607;28;20483;-60
2021/07/17 13:54:30;;;;;;;15.33;8.40;;;;;;;;;;5103271;28;20474;-60
2021/07/17 13:57:14;;;;;;;6.60;4.40;;;;;;;;;;5100697;28;20463;-59
2021/07/17 13:59:42;;;;;;;12.40;4.00;;;;;;;;;;5100070;28;20468;-58
2021/07/17 14:02:13;;;;;;;7.57;3.70;;;;;;;;;;5101952;28;20455;-59
2021/07/17 14:04:59;;;;;;;6.30;3.30;;;;;;;;;;5094110;28;20717;-58
2021/07/17 14:07:31;;;;;;;13.03;4.67;;;;;;;;;;5104250;28;20455;-60
2021/07/17 14:09:59;;;;;;;10.17;3.40;;;;;;;;;;5098391;28;20475;-60
2021/07/17 14:12:38;;;;;;;5.80;3.67;;;;;;;;;;5104055;28;20475;-61
2021/07/17 14:15:07;;;;;;;11.03;3.93;;;;;;;;;;5095551;28;20460;-60
2021/07/17 14:17:44;;;;;;;10.37;3.40;;;;;;;;;;5102269;28;20455;-59
2021/07/17 14:20:13;;;;;;;7.57;3.63;;;;;;;;;;5103495;28;20494;-64
2021/07/17 14:22:41;;;;;;;9.03;3.97;;;;;;;;;;5103789;28;20568;-57
2021/07/17 14:25:09;;;;;;;8.90;3.63;;;;;;;;;;5111870;28;20477;-60
2021/07/17 14:27:42;;;;;;;8.43;4.17;;;;;;;;;;5114423;28;20447;-60
2021/07/17 14:30:14;;;;;;;8.23;3.90;;;;;;;;;;5114158;28;20479;-60
2021/07/17 14:32:46;;;;;;;7.30;3.83;;;;;;;;;;5105827;28;20490;-59
2021/07/17 14:35:37;;;;;;;7.90;4.10;;;;;;;;;;5109617;28;20455;-60
2021/07/17 14:38:05;;;;;;;9.00;3.93;;;;;;;;;;5098308;28;20460;-58
2021/07/17 14:40:33;;;;;;;7.60;4.40;;;;;;;;;;5098040;28;20488;-58
2021/07/17 14:43:00;;;;;;;11.73;4.20;;;;;;;;;;5101518;28;20482;-59
2021/07/17 14:45:28;;;;;;;13.93;6.40;;;;;;;;;;5104415;28;20471;-59
2021/07/17 14:48:02;;;;;;;8.90;3.90;;;;;;;;;;5101515;28;20482;-55
2021/07/17 14:50:32;;;;;;;11.97;5.47;;;;;;;;;;5102451;28;20474;-58
2021/07/17 14:53:02;;;;;;;6.73;4.20;;;;;;;;;;5099871;28;20517;-59
2021/07/17 14:55:39;;;;;;;6.57;3.83;;;;;;;;;;5100971;28;20515;-56
2021/07/17 14:58:19;;;;;;;8.10;2.83;;;;;;;;;;5099622;28;20520;-56
2021/07/17 15:00:49;;;;;;;7.30;4.43;;;;;;;;;;5103097;28;20459;-58
2021/07/17 15:03:17;;;;;;;7.70;3.50;;;;;;;;;;5097132;28;20527;-58
2021/07/17 15:05:48;;;;;;;9.93;3.30;;;;;;;;;;5103175;28;20484;-58
2021/07/17 15:08:15;;;;;;;9.53;4.00;;;;;;;;;;5098015;28;20522;-59
2021/07/17 15:10:46;;;;;;;6.67;3.60;;;;;;;;;;5104988;28;20560;-60
2021/07/17 15:13:20;;;;;;;7.77;3.67;;;;;;;;;;5102425;28;20502;-59
2021/07/17 15:15:56;;;;;;;8.77;4.63;;;;;;;;;;5100026;28;20515;-60
2021/07/17 15:18:28;;;;;;;13.33;6.90;;;;;;;;;;5101256;28;20538;-59
2021/07/17 15:20:59;;;;;;;9.90;4.50;;;;;;;;;;5099972;28;20451;-60
2021/07/17 15:23:30;;;;;;;6.87;4.10;;;;;;;;;;5079897;28;20504;-60
2021/07/17 15:26:00;;;;;;;6.67;3.03;;;;;;;;;;5056676;28;20475;-59
2021/07/17 15:28:40;;;;;;;12.67;4.70;;;;;;;;;;5078792;28;20476;-59
2021/07/17 15:31:13;;;;;;;5.27;3.03;;;;;;;;;;5088508;28;20453;-60